^^
Station Historical Data
Daily Summary for February 1, 2018 Units:  Both    English   Metric
« Previous Day
Next Day »
Daily Weekly Monthly Yearly Custom
  High: Low: Average:
Temperature: TemperatureC °F /  -17.8 °C -2.2 °F /  -19 °C -1.3 °F /  -18.5 °C
Dew Point: DewpointC °F /  -17.8 °C -3.2 °F /  -19.6 °C -2.1 °F /  -18.9 °C
Humidity: Humidity% 93% 94%
Wind Speed: WindSpeedKMHmph /  0km/h - 6.1mph /  9.8km/h
Wind Gust: WindSpeedGustKMHmph /  0km/h - -
Wind- - ESE
Pressure: PressurehPa in /  0 hPa 994.8 in /  33683.9 hPa -
Precipitation: 42.9 in /  1089.66 mm    
Historical Graphs
 
 
Tabular Data for February 1, 2018
Time Temperature Dew Point Pressure Wind Wind Speed Wind Gust Humidity Rainfall Rate (Hourly) solar Conditions
TemperatureC °F /  -17.8 °C DewpointC °F /  -17.8 °C PressurehPain /  0hPa Calm     Humidity% HourlyPrecipMMin /  0mm SoftwareType W/m2 Conditions
00:04 -2.2 °F /  -19 °C -3.2 °F /  -19.6 °C 1003.9in /  33992.1hPa ESE 6.6mph /  10.6km/h 13.0mph /  20.9km/h 93% 0.0in /  0mm WeatherDisplay:10.37 W/m2 FEW
00:09 -2.2 °F /  -19 °C -3.2 °F /  -19.6 °C 1003.9in /  33992.1hPa East 4.7mph /  7.6km/h 16.7mph /  26.9km/h 93% 0.0in /  0mm WeatherDisplay:10.37 W/m2 FEW
00:14 -2.2 °F /  -19 °C -3.2 °F /  -19.6 °C 1003.9in /  33992.1hPa East 4.7mph /  7.6km/h 5.6mph /  9km/h 93% 0.0in /  0mm WeatherDisplay:10.37 W/m2 FEW
00:19 -2.2 °F /  -19 °C -3.2 °F /  -19.6 °C 1003.6in /  33981.9hPa East 6.9mph /  11.1km/h 14.8mph /  23.8km/h 93% 0.0in /  0mm WeatherDisplay:10.37 W/m2 FEW
00:24 -2.2 °F /  -19 °C -3.2 °F /  -19.6 °C 1003.6in /  33981.9hPa SE 5.3mph /  8.5km/h 11.1mph /  17.9km/h 93% 0.0in /  0mm WeatherDisplay:10.37 W/m2 FEW
00:29 -2.2 °F /  -19 °C -3.2 °F /  -19.6 °C 1003.6in /  33981.9hPa ESE 3.9mph /  6.3km/h 9.3mph /  15km/h 93% 0.0in /  0mm WeatherDisplay:10.37 W/m2 FEW
00:34 -2.2 °F /  -19 °C -3.2 °F /  -19.6 °C 1003.6in /  33981.9hPa ESE 4.7mph /  7.6km/h 14.8mph /  23.8km/h 93% 0.0in /  0mm WeatherDisplay:10.37 W/m2 FEW
00:39 -2.1 °F /  -18.9 °C -3.1 °F /  -19.5 °C 1003.3in /  33971.7hPa East 2.9mph /  4.7km/h 13.0mph /  20.9km/h 93% 0.0in /  0mm WeatherDisplay:10.37 W/m2 FEW
00:44 -2.1 °F /  -18.9 °C -3.1 °F /  -19.5 °C 1003.3in /  33971.7hPa ESE 5.0mph /  8km/h 6.4mph /  10.3km/h 93% 0.0in /  0mm WeatherDisplay:10.37 W/m2 FEW
00:49 -2.1 °F /  -18.9 °C -3.1 °F /  -19.5 °C 1003.3in /  33971.7hPa SE 3.9mph /  6.3km/h 8.0mph /  12.9km/h 93% 0.0in /  0mm WeatherDisplay:10.37 W/m2 FEW
00:54 -2.1 °F /  -18.9 °C -3.1 °F /  -19.5 °C 1003.3in /  33971.7hPa SE 9.3mph /  15km/h 14.8mph /  23.8km/h 93% 0.0in /  0mm WeatherDisplay:10.37 W/m2 FEW
00:59 -2.1 °F /  -18.9 °C -3.1 °F /  -19.5 °C 1003.3in /  33971.7hPa East 4.3mph /  6.9km/h 9.3mph /  15km/h 93% 0.0in /  0mm WeatherDisplay:10.37 W/m2 FEW
01:04 -2.1 °F /  -18.9 °C -3.1 °F /  -19.5 °C 1002.9in /  33958.2hPa SE 4.5mph /  7.2km/h 8.0mph /  12.9km/h 93% 0.0in /  0mm WeatherDisplay:10.37 W/m2 FEW
01:09 -2.1 °F /  -18.9 °C -3.1 °F /  -19.5 °C 1002.9in /  33958.2hPa SSE 7.1mph /  11.4km/h 8.0mph /  12.9km/h 93% 0.0in /  0mm WeatherDisplay:10.37 W/m2 FEW
01:14 -2.1 °F /  -18.9 °C -3.1 °F /  -19.5 °C 1002.9in /  33958.2hPa SSW 4.7mph /  7.6km/h 13.0mph /  20.9km/h 93% 0.0in /  0mm WeatherDisplay:10.37 W/m2 FEW
01:19 -2.1 °F /  -18.9 °C -3.1 °F /  -19.5 °C 1002.9in /  33958.2hPa ENE 4.0mph /  6.4km/h 13.0mph /  20.9km/h 93% 0.3in /  7.62mm WeatherDisplay:10.37 W/m2 RA
01:24 -2.1 °F /  -18.9 °C -3.1 °F /  -19.5 °C 1002.9in /  33958.2hPa SE 8.4mph /  13.5km/h 13.0mph /  20.9km/h 93% 0.3in /  7.62mm WeatherDisplay:10.37 W/m2 RA
01:29 -2.1 °F /  -18.9 °C -3.1 °F /  -19.5 °C 1002.9in /  33958.2hPa ESE 9.5mph /  15.3km/h 22.2mph /  35.7km/h 93% 0.3in /  7.62mm WeatherDisplay:10.37 W/m2 FEW
01:34 -2.1 °F /  -18.9 °C -3.1 °F /  -19.5 °C 1002.9in /  33958.2hPa ENE 6.8mph /  10.9km/h 9.7mph /  15.6km/h 93% 0.3in /  7.62mm WeatherDisplay:10.37 W/m2 FEW
01:39 -2.1 °F /  -18.9 °C -2.9 °F /  -19.4 °C 1002.9in /  33958.2hPa East 6.8mph /  10.9km/h 12.9mph /  20.8km/h 94% 0.5in /  12.7mm WeatherDisplay:10.37 W/m2 RA
01:44 -2.1 °F /  -18.9 °C -2.9 °F /  -19.4 °C 1002.6in /  33948hPa ESE 3.4mph /  5.5km/h 11.1mph /  17.9km/h 94% 0.5in /  12.7mm WeatherDisplay:10.37 W/m2 RA
01:49 -2.2 °F /  -19 °C -3.0 °F /  -19.4 °C 1002.6in /  33948hPa SE 6.3mph /  10.1km/h 18.5mph /  29.8km/h 94% 0.5in /  12.7mm WeatherDisplay:10.37 W/m2 RA
01:54 -2.2 °F /  -19 °C -3.0 °F /  -19.4 °C 1002.6in /  33948hPa SE 6.3mph /  10.1km/h 18.5mph /  29.8km/h 94% 0.5in /  12.7mm WeatherDisplay:10.37 W/m2 RA
01:59 -2.2 °F /  -19 °C -3.0 °F /  -19.4 °C 1002.6in /  33948hPa SE 6.9mph /  11.1km/h 17.7mph /  28.5km/h 94% 0.5in /  12.7mm WeatherDisplay:10.37 W/m2 FEW
02:04 -2.2 °F /  -19 °C -3.0 °F /  -19.4 °C 1002.6in /  33948hPa SE 4.5mph /  7.2km/h 20.4mph /  32.8km/h 94% 0.8in /  20.32mm WeatherDisplay:10.37 W/m2 RA
02:09 -2.2 °F /  -19 °C -3.0 °F /  -19.4 °C 1002.6in /  33948hPa NE 8.2mph /  13.2km/h 17.7mph /  28.5km/h 94% 0.8in /  20.32mm WeatherDisplay:10.37 W/m2 RA
02:14 -2.2 °F /  -19 °C -3.0 °F /  -19.4 °C 1002.3in /  33937.9hPa ESE 6.4mph /  10.3km/h 9.3mph /  15km/h 94% 0.8in /  20.32mm WeatherDisplay:10.37 W/m2 FEW
02:19 -2.1 °F /  -18.9 °C -2.9 °F /  -19.4 °C 1002.3in /  33937.9hPa East 8.0mph /  12.9km/h 11.1mph /  17.9km/h 94% 0.5in /  12.7mm WeatherDisplay:10.37 W/m2 FEW
02:24 -2.1 °F /  -18.9 °C -2.9 °F /  -19.4 °C 1002.3in /  33937.9hPa East 9.2mph /  14.8km/h 17.7mph /  28.5km/h 94% 0.8in /  20.32mm WeatherDisplay:10.37 W/m2 RA
02:29 -2.1 °F /  -18.9 °C -2.9 °F /  -19.4 °C 1002.3in /  33937.9hPa SE 3.9mph /  6.3km/h 16.7mph /  26.9km/h 94% 0.8in /  20.32mm WeatherDisplay:10.37 W/m2 RA
02:34 -2.1 °F /  -18.9 °C -2.9 °F /  -19.4 °C 1002.3in /  33937.9hPa SE 13.2mph /  21.2km/h 20.4mph /  32.8km/h 94% 0.8in /  20.32mm WeatherDisplay:10.37 W/m2 FEW
02:39 -2.1 °F /  -18.9 °C -2.9 °F /  -19.4 °C 1001.9in /  33924.3hPa SE 4.2mph /  6.8km/h 11.1mph /  17.9km/h 94% 0.5in /  12.7mm WeatherDisplay:10.37 W/m2 FEW
02:44 -2.1 °F /  -18.9 °C -2.9 °F /  -19.4 °C 1001.6in /  33914.2hPa East 6.1mph /  9.8km/h 18.5mph /  29.8km/h 94% 0.8in /  20.32mm WeatherDisplay:10.37 W/m2 RA
02:49 -2.1 °F /  -18.9 °C -2.9 °F /  -19.4 °C 1001.6in /  33914.2hPa East 10.0mph /  16.1km/h 16.7mph /  26.9km/h 94% 0.5in /  12.7mm WeatherDisplay:10.37 W/m2 RA
02:54 -2.0 °F /  -18.9 °C -2.8 °F /  -19.3 °C 1001.6in /  33914.2hPa East 9.5mph /  15.3km/h 16.7mph /  26.9km/h 94% 0.5in /  12.7mm WeatherDisplay:10.37 W/m2 FEW
02:59 -2.0 °F /  -18.9 °C -2.8 °F /  -19.3 °C 1001.6in /  33914.2hPa ESE 7.4mph /  11.9km/h 13.0mph /  20.9km/h 94% 0.5in /  12.7mm WeatherDisplay:10.37 W/m2 FEW
03:04 -2.0 °F /  -18.9 °C -2.8 °F /  -19.3 °C 1001.6in /  33914.2hPa ESE 6.3mph /  10.1km/h 14.8mph /  23.8km/h 94% 0.5in /  12.7mm WeatherDisplay:10.37 W/m2 RA
03:09 -2.0 °F /  -18.9 °C -2.8 °F /  -19.3 °C 1001.2in /  33900.6hPa SE 9.2mph /  14.8km/h 18.5mph /  29.8km/h 94% 0.5in /  12.7mm WeatherDisplay:10.37 W/m2 RA
03:14 -1.9 °F /  -18.8 °C -2.8 °F /  -19.3 °C 1001.2in /  33900.6hPa SSE 6.4mph /  10.3km/h 18.5mph /  29.8km/h 94% 0.5in /  12.7mm WeatherDisplay:10.37 W/m2 FEW
03:19 -1.9 °F /  -18.8 °C -2.8 °F /  -19.3 °C 1001.2in /  33900.6hPa SE 4.8mph /  7.7km/h 11.1mph /  17.9km/h 94% 0.8in /  20.32mm WeatherDisplay:10.37 W/m2 RA
03:24 -1.9 °F /  -18.8 °C -2.8 °F /  -19.3 °C 1000.9in /  33890.5hPa East 6.9mph /  11.1km/h 7.4mph /  11.9km/h 94% 0.5in /  12.7mm WeatherDisplay:10.37 W/m2 RA
03:29 -1.9 °F /  -18.8 °C -2.8 °F /  -19.3 °C 1000.9in /  33890.5hPa East 9.0mph /  14.5km/h 13.0mph /  20.9km/h 94% 0.8in /  20.32mm WeatherDisplay:10.37 W/m2 RA
03:34 -1.9 °F /  -18.8 °C -2.7 °F /  -19.3 °C 1000.9in /  33890.5hPa ESE 8.0mph /  12.9km/h 13.0mph /  20.9km/h 94% 0.8in /  20.32mm WeatherDisplay:10.37 W/m2 RA
03:39 -1.9 °F /  -18.8 °C -2.7 °F /  -19.3 °C 1000.9in /  33890.5hPa East 7.7mph /  12.4km/h 14.8mph /  23.8km/h 94% 1.0in /  25.4mm WeatherDisplay:10.37 W/m2 RA
03:44 -1.8 °F /  -18.8 °C -2.7 °F /  -19.3 °C 1000.6in /  33880.3hPa East 6.6mph /  10.6km/h 11.1mph /  17.9km/h 94% 0.8in /  20.32mm WeatherDisplay:10.37 W/m2 RA
03:49 -1.8 °F /  -18.8 °C -2.7 °F /  -19.3 °C 1000.6in /  33880.3hPa ESE 11.9mph /  19.2km/h 22.2mph /  35.7km/h 94% 1.0in /  25.4mm WeatherDisplay:10.37 W/m2 RA
03:54 -1.8 °F /  -18.8 °C -2.7 °F /  -19.3 °C 1000.6in /  33880.3hPa ESE 6.8mph /  10.9km/h 13.0mph /  20.9km/h 94% 1.0in /  25.4mm WeatherDisplay:10.37 W/m2 RA
03:59 -1.8 °F /  -18.8 °C -2.7 °F /  -19.3 °C 1000.6in /  33880.3hPa ESE 14.0mph /  22.5km/h 17.7mph /  28.5km/h 94% 1.3in /  33.02mm WeatherDisplay:10.37 W/m2 RA
04:04 -1.8 °F /  -18.8 °C -2.6 °F /  -19.2 °C 1000.6in /  33880.3hPa ESE 5.8mph /  9.3km/h 16.7mph /  26.9km/h 94% 1.3in /  33.02mm WeatherDisplay:10.37 W/m2 RA
04:09 -1.8 °F /  -18.8 °C -2.6 °F /  -19.2 °C 1000.6in /  33880.3hPa East 1.8mph /  2.9km/h 18.5mph /  29.8km/h 94% 1.3in /  33.02mm WeatherDisplay:10.37 W/m2 RA
04:14 -1.8 °F /  -18.8 °C -2.6 °F /  -19.2 °C 1000.6in /  33880.3hPa ENE 4.5mph /  7.2km/h 5.6mph /  9km/h 94% 1.5in /  38.1mm WeatherDisplay:10.37 W/m2 RA
04:19 -1.8 °F /  -18.8 °C -2.6 °F /  -19.2 °C 1000.2in /  33866.8hPa ENE 13.0mph /  20.9km/h 18.5mph /  29.8km/h 94% 1.5in /  38.1mm WeatherDisplay:10.37 W/m2 RA
04:24 -1.8 °F /  -18.8 °C -2.6 °F /  -19.2 °C 1000.2in /  33866.8hPa SE 8.7mph /  14km/h 14.8mph /  23.8km/h 94% 1.5in /  38.1mm WeatherDisplay:10.37 W/m2 RA
04:29 -1.7 °F /  -18.7 °C -2.6 °F /  -19.2 °C 999.9in /  33856.6hPa NE 7.6mph /  12.2km/h 20.4mph /  32.8km/h 94% 1.5in /  38.1mm WeatherDisplay:10.37 W/m2 RA
04:34 -1.7 °F /  -18.7 °C -2.6 °F /  -19.2 °C 999.9in /  33856.6hPa ESE 7.6mph /  12.2km/h 9.7mph /  15.6km/h 94% 1.5in /  38.1mm WeatherDisplay:10.37 W/m2 RA
04:39 -1.7 °F /  -18.7 °C -2.6 °F /  -19.2 °C 999.9in /  33856.6hPa SSE 10.5mph /  16.9km/h 22.2mph /  35.7km/h 94% 1.5in /  38.1mm WeatherDisplay:10.37 W/m2 RA
04:44 -1.7 °F /  -18.7 °C -2.6 °F /  -19.2 °C 999.9in /  33856.6hPa East 14.2mph /  22.9km/h 22.2mph /  35.7km/h 94% 1.8in /  45.72mm WeatherDisplay:10.37 W/m2 RA
04:49 -1.7 °F /  -18.7 °C -2.6 °F /  -19.2 °C 999.9in /  33856.6hPa East 9.3mph /  15km/h 20.4mph /  32.8km/h 94% 1.5in /  38.1mm WeatherDisplay:10.37 W/m2 RA
04:54 -1.7 °F /  -18.7 °C -2.6 °F /  -19.2 °C 999.5in /  33843.1hPa East 8.2mph /  13.2km/h 20.4mph /  32.8km/h 94% 1.8in /  45.72mm WeatherDisplay:10.37 W/m2 RA
04:59 -1.7 °F /  -18.7 °C -2.5 °F /  -19.2 °C 999.9in /  33856.6hPa East 15.9mph /  25.6km/h 27.8mph /  44.7km/h 94% 1.5in /  38.1mm WeatherDisplay:10.37 W/m2 RA
05:04 -1.7 °F /  -18.7 °C -2.5 °F /  -19.2 °C 999.5in /  33843.1hPa SE 16.3mph /  26.2km/h 24.1mph /  38.8km/h 94% 1.5in /  38.1mm WeatherDisplay:10.37 W/m2 RA
05:09 -1.7 °F /  -18.7 °C -2.5 °F /  -19.2 °C 999.5in /  33843.1hPa ENE 10.5mph /  16.9km/h 16.7mph /  26.9km/h 94% 1.5in /  38.1mm WeatherDisplay:10.37 W/m2 RA
05:14 -1.7 °F /  -18.7 °C -2.5 °F /  -19.2 °C 999.2in /  33832.9hPa ESE 4.3mph /  6.9km/h 19.3mph /  31.1km/h 94% 1.5in /  38.1mm WeatherDisplay:10.37 W/m2 FEW
05:19 -1.7 °F /  -18.7 °C -2.5 °F /  -19.2 °C 999.2in /  33832.9hPa ENE 10.8mph /  17.4km/h 22.2mph /  35.7km/h 94% 1.3in /  33.02mm WeatherDisplay:10.37 W/m2 FEW
05:24 -1.7 °F /  -18.7 °C -2.6 °F /  -19.2 °C 999.2in /  33832.9hPa ESE 11.9mph /  19.2km/h 18.5mph /  29.8km/h 94% 1.3in /  33.02mm WeatherDisplay:10.37 W/m2 FEW
05:29 -1.7 °F /  -18.7 °C -2.6 °F /  -19.2 °C 999.2in /  33832.9hPa East 14.5mph /  23.3km/h 16.7mph /  26.9km/h 94% 1.0in /  25.4mm WeatherDisplay:10.37 W/m2 FEW
05:34 -1.7 °F /  -18.7 °C -2.6 °F /  -19.2 °C 999.2in /  33832.9hPa NNE 11.1mph /  17.9km/h 12.9mph /  20.8km/h 94% 1.0in /  25.4mm WeatherDisplay:10.37 W/m2 RA
05:39 -1.7 °F /  -18.7 °C -2.6 °F /  -19.2 °C 998.9in /  33822.8hPa East 7.1mph /  11.4km/h 18.5mph /  29.8km/h 94% 1.3in /  33.02mm WeatherDisplay:10.37 W/m2 RA
05:44 -1.7 °F /  -18.7 °C -2.6 °F /  -19.2 °C 998.9in /  33822.8hPa ESE 1.9mph /  3.1km/h 18.5mph /  29.8km/h 94% 1.3in /  33.02mm WeatherDisplay:10.37 W/m2 RA
05:49 -1.7 °F /  -18.7 °C -2.6 °F /  -19.2 °C 998.9in /  33822.8hPa SE 6.3mph /  10.1km/h 11.1mph /  17.9km/h 94% 1.5in /  38.1mm WeatherDisplay:10.37 W/m2 RA
05:54 -1.7 °F /  -18.7 °C -2.6 °F /  -19.2 °C 998.9in /  33822.8hPa East 16.4mph /  26.4km/h 24.1mph /  38.8km/h 94% 1.5in /  38.1mm WeatherDisplay:10.37 W/m2 RA
05:59 -1.7 °F /  -18.7 °C -2.6 °F /  -19.2 °C 998.9in /  33822.8hPa ESE 2.3mph /  3.7km/h 25.9mph /  41.7km/h 94% 1.8in /  45.72mm WeatherDisplay:10.37 W/m2 RA
06:04 -1.7 °F /  -18.7 °C -2.6 °F /  -19.2 °C 998.9in /  33822.8hPa NE 9.3mph /  15km/h 24.1mph /  38.8km/h 94% 2.0in /  50.8mm WeatherDisplay:10.37 W/m2 RA
06:09 -1.7 °F /  -18.7 °C -2.6 °F /  -19.2 °C 998.9in /  33822.8hPa NE 8.7mph /  14km/h 25.9mph /  41.7km/h 94% 2.3in /  58.42mm WeatherDisplay:10.37 W/m2 RA
06:14 -1.7 °F /  -18.7 °C -2.6 °F /  -19.2 °C 998.9in /  33822.8hPa East 10.9mph /  17.5km/h 31.5mph /  50.7km/h 94% 2.3in /  58.42mm WeatherDisplay:10.37 W/m2 RA
06:19 -1.7 °F /  -18.7 °C -2.6 °F /  -19.2 °C 998.9in /  33822.8hPa SSE 10.1mph /  16.3km/h 17.7mph /  28.5km/h 94% 2.5in /  63.5mm WeatherDisplay:10.37 W/m2 RA
06:24 -1.8 °F /  -18.8 °C -2.6 °F /  -19.2 °C 998.5in /  33809.2hPa SE 10.6mph /  17.1km/h 25.9mph /  41.7km/h 94% 2.8in /  71.12mm WeatherDisplay:10.37 W/m2 RA
06:29 -1.8 °F /  -18.8 °C -2.6 °F /  -19.2 °C 998.9in /  33822.8hPa ENE 12.1mph /  19.5km/h 16.7mph /  26.9km/h 94% 3.0in /  76.2mm WeatherDisplay:10.37 W/m2 RA
06:34 -1.8 °F /  -18.8 °C -2.6 °F /  -19.2 °C 998.5in /  33809.2hPa East 12.6mph /  20.3km/h 20.9mph /  33.6km/h 94% 3.0in /  76.2mm WeatherDisplay:10.37 W/m2 RA
06:39 -1.8 °F /  -18.8 °C -2.6 °F /  -19.2 °C 998.5in /  33809.2hPa ESE 10.1mph /  16.3km/h 17.7mph /  28.5km/h 94% 2.5in /  63.5mm WeatherDisplay:10.37 W/m2 RA
06:45 -1.8 °F /  -18.8 °C -2.7 °F /  -19.3 °C 998.5in /  33809.2hPa SSE 8.0mph /  12.9km/h 14.8mph /  23.8km/h 94% 2.5in /  63.5mm WeatherDisplay:10.37 W/m2 RA
06:50 -1.8 °F /  -18.8 °C -2.7 °F /  -19.3 °C 998.5in /  33809.2hPa ESE 13.2mph /  21.2km/h 25.9mph /  41.7km/h 94% 2.3in /  58.42mm WeatherDisplay:10.37 W/m2 RA
06:55 -1.9 °F /  -18.8 °C -2.7 °F /  -19.3 °C 998.5in /  33809.2hPa SE 13.2mph /  21.2km/h 24.1mph /  38.8km/h 94% 2.3in /  58.42mm WeatherDisplay:10.37 W/m2 RA
07:00 -1.9 °F /  -18.8 °C -2.7 °F /  -19.3 °C 998.2in /  33799.1hPa SE 9.7mph /  15.6km/h 18.5mph /  29.8km/h 94% 2.3in /  58.42mm WeatherDisplay:10.37 W/m2 RA
07:05 -1.9 °F /  -18.8 °C -2.7 °F /  -19.3 °C 998.2in /  33799.1hPa SE 12.7mph /  20.4km/h 20.4mph /  32.8km/h 94% 2.3in /  58.42mm WeatherDisplay:10.37 W/m2 RA
07:10 -1.9 °F /  -18.8 °C -2.7 °F /  -19.3 °C 998.2in /  33799.1hPa ENE 6.9mph /  11.1km/h 18.5mph /  29.8km/h 94% 2.3in /  58.42mm WeatherDisplay:10.37 W/m2 RA
07:15 -1.9 °F /  -18.8 °C -2.8 °F /  -19.3 °C 998.2in /  33799.1hPa ENE 11.9mph /  19.2km/h 25.9mph /  41.7km/h 94% 2.5in /  63.5mm WeatherDisplay:10.37 W/m2 RA
07:20 -1.9 °F /  -18.8 °C -2.8 °F /  -19.3 °C 998.2in /  33799.1hPa SE 13.0mph /  20.9km/h 18.5mph /  29.8km/h 94% 2.5in /  63.5mm WeatherDisplay:10.37 W/m2 RA
07:25 -1.9 °F /  -18.8 °C -2.8 °F /  -19.3 °C 998.2in /  33799.1hPa SE 11.6mph /  18.7km/h 22.2mph /  35.7km/h 94% 2.5in /  63.5mm WeatherDisplay:10.37 W/m2 RA
07:30 -2.0 °F /  -18.9 °C -2.8 °F /  -19.3 °C 998.2in /  33799.1hPa East 14.5mph /  23.3km/h 25.9mph /  41.7km/h 94% 2.5in /  63.5mm WeatherDisplay:10.37 W/m2 RA
07:35 -2.0 °F /  -18.9 °C -2.8 °F /  -19.3 °C 998.2in /  33799.1hPa NE 6.9mph /  11.1km/h 25.9mph /  41.7km/h 94% 2.5in /  63.5mm WeatherDisplay:10.37 W/m2 RA
07:40 -2.0 °F /  -18.9 °C -2.8 °F /  -19.3 °C 998.2in /  33799.1hPa ESE 5.8mph /  9.3km/h 22.2mph /  35.7km/h 94% 2.8in /  71.12mm WeatherDisplay:10.37 W/m2 RA
07:45 -2.0 °F /  -18.9 °C -2.8 °F /  -19.3 °C 997.9in /  33788.9hPa ENE 10.8mph /  17.4km/h 20.4mph /  32.8km/h 94% 3.0in /  76.2mm WeatherDisplay:10.37 W/m2 RA
07:50 -2.0 °F /  -18.9 °C -2.8 °F /  -19.3 °C 997.9in /  33788.9hPa SE 11.1mph /  17.9km/h 14.8mph /  23.8km/h 94% 3.0in /  76.2mm WeatherDisplay:10.37 W/m2 RA
07:55 -2.0 °F /  -18.9 °C -2.8 °F /  -19.3 °C 997.9in /  33788.9hPa SE 9.5mph /  15.3km/h 18.5mph /  29.8km/h 94% 3.3in /  83.82mm WeatherDisplay:10.37 W/m2 RA
08:00 -2.0 °F /  -18.9 °C -2.8 °F /  -19.3 °C 997.9in /  33788.9hPa ESE 9.8mph /  15.8km/h 14.8mph /  23.8km/h 94% 3.3in /  83.82mm WeatherDisplay:10.37 W/m2 RA
08:06 -2.0 °F /  -18.9 °C -2.8 °F /  -19.3 °C 997.9in /  33788.9hPa ENE 13.5mph /  21.7km/h 27.8mph /  44.7km/h 94% 3.0in /  76.2mm WeatherDisplay:10.37 W/m2 RA
08:11 -1.9 °F /  -18.8 °C -2.8 °F /  -19.3 °C 997.5in /  33775.4hPa ESE 6.3mph /  10.1km/h 18.5mph /  29.8km/h 94% 2.8in /  71.12mm WeatherDisplay:10.37 W/m2 RA
08:16 -2.0 °F /  -18.9 °C -2.8 °F /  -19.3 °C 997.5in /  33775.4hPa ESE 7.1mph /  11.4km/h 18.5mph /  29.8km/h 94% 2.8in /  71.12mm WeatherDisplay:10.37 W/m2 RA
08:21 -1.9 °F /  -18.8 °C -2.8 °F /  -19.3 °C 997.5in /  33775.4hPa ENE 8.2mph /  13.2km/h 18.5mph /  29.8km/h 94% 3.0in /  76.2mm WeatherDisplay:10.37 W/m2 RA
08:26 -2.0 °F /  -18.9 °C -2.8 °F /  -19.3 °C 997.2in /  33765.2hPa ENE 11.7mph /  18.8km/h 22.2mph /  35.7km/h 94% 3.0in /  76.2mm WeatherDisplay:10.37 W/m2 RA
08:31 -2.0 °F /  -18.9 °C -2.8 °F /  -19.3 °C 997.2in /  33765.2hPa ENE 8.0mph /  12.9km/h 22.2mph /  35.7km/h 94% 3.3in /  83.82mm WeatherDisplay:10.37 W/m2 RA
08:36 -1.9 °F /  -18.8 °C -2.8 °F /  -19.3 °C 997.2in /  33765.2hPa East 11.3mph /  18.2km/h 22.2mph /  35.7km/h 94% 3.3in /  83.82mm WeatherDisplay:10.37 W/m2 RA
08:42 -1.9 °F /  -18.8 °C -2.8 °F /  -19.3 °C 997.2in /  33765.2hPa NE 11.7mph /  18.8km/h 22.2mph /  35.7km/h 94% 3.3in /  83.82mm WeatherDisplay:10.37 W/m2 RA
08:47 -1.9 °F /  -18.8 °C -2.8 °F /  -19.3 °C 997.2in /  33765.2hPa ENE 11.9mph /  19.2km/h 20.4mph /  32.8km/h 94% 3.3in /  83.82mm WeatherDisplay:10.37 W/m2 RA
08:52 -1.9 °F /  -18.8 °C -2.8 °F /  -19.3 °C 997.2in /  33765.2hPa East 8.7mph /  14km/h 18.5mph /  29.8km/h 94% 3.0in /  76.2mm WeatherDisplay:10.37 W/m2 RA
08:57 -1.9 °F /  -18.8 °C -2.8 °F /  -19.3 °C 997.2in /  33765.2hPa ENE 15.4mph /  24.8km/h 31.5mph /  50.7km/h 94% 3.0in /  76.2mm WeatherDisplay:10.37 W/m2 RA
09:02 -1.9 °F /  -18.8 °C -2.8 °F /  -19.3 °C 997.2in /  33765.2hPa SE 10.6mph /  17.1km/h 16.7mph /  26.9km/h 94% 3.3in /  83.82mm WeatherDisplay:10.37 W/m2 RA
09:08 -1.9 °F /  -18.8 °C -2.7 °F /  -19.3 °C 996.8in /  33751.6hPa SE 8.2mph /  13.2km/h 20.4mph /  32.8km/h 94% 3.3in /  83.82mm WeatherDisplay:10.37 W/m2 RA
09:13 -1.9 °F /  -18.8 °C -2.7 °F /  -19.3 °C 996.8in /  33751.6hPa East 13.8mph /  22.2km/h 24.1mph /  38.8km/h 94% 3.0in /  76.2mm WeatherDisplay:10.37 W/m2 RA
09:18 -1.9 °F /  -18.8 °C -2.7 °F /  -19.3 °C 996.8in /  33751.6hPa SE 6.4mph /  10.3km/h 11.1mph /  17.9km/h 94% 3.0in /  76.2mm WeatherDisplay:10.37 W/m2 RA
09:23 -1.9 °F /  -18.8 °C -2.7 °F /  -19.3 °C 996.8in /  33751.6hPa SE 12.4mph /  20km/h 31.5mph /  50.7km/h 94% 3.3in /  83.82mm WeatherDisplay:10.37 W/m2 RA
09:28 -1.9 °F /  -18.8 °C -2.7 °F /  -19.3 °C 996.8in /  33751.6hPa ESE 13.5mph /  21.7km/h 13.5mph /  21.7km/h 94% 3.0in /  76.2mm WeatherDisplay:10.37 W/m2 RA
09:33 -1.9 °F /  -18.8 °C -2.7 °F /  -19.3 °C 996.8in /  33751.6hPa East 12.2mph /  19.6km/h 22.2mph /  35.7km/h 94% 3.0in /  76.2mm WeatherDisplay:10.37 W/m2 RA
09:38 -1.8 °F /  -18.8 °C -2.7 °F /  -19.3 °C 996.8in /  33751.6hPa ESE 10.3mph /  16.6km/h 18.5mph /  29.8km/h 94% 3.0in /  76.2mm WeatherDisplay:10.37 W/m2 RA
09:43 -1.8 °F /  -18.8 °C -2.7 °F /  -19.3 °C 996.5in /  33741.5hPa NNE 11.6mph /  18.7km/h 24.1mph /  38.8km/h 94% 3.0in /  76.2mm WeatherDisplay:10.37 W/m2 RA
09:48 -1.8 °F /  -18.8 °C -2.7 °F /  -19.3 °C 996.5in /  33741.5hPa ESE 11.6mph /  18.7km/h 29.6mph /  47.6km/h 94% 3.0in /  76.2mm WeatherDisplay:10.37 W/m2 RA
09:53 -1.8 °F /  -18.8 °C -2.7 °F /  -19.3 °C 996.5in /  33741.5hPa SE 13.4mph /  21.6km/h 27.8mph /  44.7km/h 94% 3.3in /  83.82mm WeatherDisplay:10.37 W/m2 RA
09:58 -1.8 °F /  -18.8 °C -2.7 °F /  -19.3 °C 996.5in /  33741.5hPa East 7.7mph /  12.4km/h 24.1mph /  38.8km/h 94% 3.3in /  83.82mm WeatherDisplay:10.37 W/m2 RA
10:03 -1.8 °F /  -18.8 °C -2.7 °F /  -19.3 °C 996.5in /  33741.5hPa SE 11.7mph /  18.8km/h 14.8mph /  23.8km/h 94% 3.0in /  76.2mm WeatherDisplay:10.37 W/m2 RA
10:08 -1.8 °F /  -18.8 °C -2.7 °F /  -19.3 °C 996.5in /  33741.5hPa East 7.2mph /  11.6km/h 18.5mph /  29.8km/h 94% 3.0in /  76.2mm WeatherDisplay:10.37 W/m2 RA
10:13 -1.8 °F /  -18.8 °C -2.7 °F /  -19.3 °C 996.5in /  33741.5hPa South 12.4mph /  20km/h 13.0mph /  20.9km/h 94% 2.8in /  71.12mm WeatherDisplay:10.37 W/m2 RA
10:19 -1.8 °F /  -18.8 °C -2.7 °F /  -19.3 °C 996.2in /  33731.3hPa SE 14.2mph /  22.9km/h 18.5mph /  29.8km/h 94% 2.5in /  63.5mm WeatherDisplay:10.37 W/m2 RA
10:24 -1.8 °F /  -18.8 °C -2.6 °F /  -19.2 °C 996.5in /  33741.5hPa ENE 7.4mph /  11.9km/h 16.7mph /  26.9km/h 94% 2.8in /  71.12mm WeatherDisplay:10.37 W/m2 RA
10:29 -1.8 °F /  -18.8 °C -2.6 °F /  -19.2 °C 996.2in /  33731.3hPa East 11.4mph /  18.3km/h 20.4mph /  32.8km/h 94% 3.0in /  76.2mm WeatherDisplay:10.37 W/m2 RA
10:34 -1.8 °F /  -18.8 °C -2.6 °F /  -19.2 °C 996.2in /  33731.3hPa South 11.1mph /  17.9km/h 20.4mph /  32.8km/h 94% 3.3in /  83.82mm WeatherDisplay:10.37 W/m2 RA
10:39 -1.8 °F /  -18.8 °C -2.6 °F /  -19.2 °C 996.2in /  33731.3hPa SE 12.1mph /  19.5km/h 22.2mph /  35.7km/h 94% 3.0in /  76.2mm WeatherDisplay:10.37 W/m2 RA
10:44 -1.7 °F /  -18.7 °C -2.6 °F /  -19.2 °C 996.2in /  33731.3hPa ESE 12.1mph /  19.5km/h 18.5mph /  29.8km/h 94% 3.3in /  83.82mm WeatherDisplay:10.37 W/m2 RA
10:49 -1.7 °F /  -18.7 °C -2.6 °F /  -19.2 °C 996.2in /  33731.3hPa East 8.2mph /  13.2km/h 19.3mph /  31.1km/h 94% 3.0in /  76.2mm WeatherDisplay:10.37 W/m2 RA
10:54 -1.7 °F /  -18.7 °C -2.6 °F /  -19.2 °C 996.2in /  33731.3hPa NE 10.1mph /  16.3km/h 16.1mph /  25.9km/h 94% 3.3in /  83.82mm WeatherDisplay:10.37 W/m2 RA
10:59 -1.7 °F /  -18.7 °C -2.6 °F /  -19.2 °C 996.2in /  33731.3hPa East 7.6mph /  12.2km/h 17.7mph /  28.5km/h 94% 3.3in /  83.82mm WeatherDisplay:10.37 W/m2 RA
11:04 -1.7 °F /  -18.7 °C -2.5 °F /  -19.2 °C 996.2in /  33731.3hPa East 14.8mph /  23.8km/h 16.7mph /  26.9km/h 94% 3.3in /  83.82mm WeatherDisplay:10.37 W/m2 RA
11:09 -1.7 °F /  -18.7 °C -2.5 °F /  -19.2 °C 995.8in /  33717.8hPa ENE 7.6mph /  12.2km/h 16.7mph /  26.9km/h 94% 3.6in /  91.44mm WeatherDisplay:10.37 W/m2 RA
11:14 -1.7 °F /  -18.7 °C -2.5 °F /  -19.2 °C 995.8in /  33717.8hPa NE 9.3mph /  15km/h 18.5mph /  29.8km/h 94% 3.8in /  96.52mm WeatherDisplay:10.37 W/m2 RA
11:19 -1.7 °F /  -18.7 °C -2.5 °F /  -19.2 °C 995.8in /  33717.8hPa ESE 8.7mph /  14km/h 16.1mph /  25.9km/h 94% 4.1in /  104.14mm WeatherDisplay:10.37 W/m2 RA
11:25 -1.7 °F /  -18.7 °C -2.5 °F /  -19.2 °C 995.8in /  33717.8hPa ESE 15.6mph /  25.1km/h 24.1mph /  38.8km/h 94% 3.6in /  91.44mm WeatherDisplay:10.37 W/m2 RA
11:30 -1.7 °F /  -18.7 °C -2.5 °F /  -19.2 °C 995.8in /  33717.8hPa SE 11.3mph /  18.2km/h 20.4mph /  32.8km/h 94% 3.6in /  91.44mm WeatherDisplay:10.37 W/m2 RA
11:36 -1.6 °F /  -18.7 °C -2.4 °F /  -19.1 °C 995.8in /  33717.8hPa East 9.7mph /  15.6km/h 17.7mph /  28.5km/h 94% 3.6in /  91.44mm WeatherDisplay:10.37 W/m2 RA
11:41 -1.7 °F /  -18.7 °C -2.5 °F /  -19.2 °C 995.8in /  33717.8hPa SE 11.1mph /  17.9km/h 29.0mph /  46.7km/h 94% 3.6in /  91.44mm WeatherDisplay:10.37 W/m2 RA
11:46 -1.7 °F /  -18.7 °C -2.5 °F /  -19.2 °C 995.8in /  33717.8hPa ESE 15.0mph /  24.1km/h 27.8mph /  44.7km/h 94% 3.6in /  91.44mm WeatherDisplay:10.37 W/m2 RA
11:51 -1.7 °F /  -18.7 °C -2.5 °F /  -19.2 °C 995.5in /  33707.6hPa NE 9.8mph /  15.8km/h 18.5mph /  29.8km/h 94% 3.6in /  91.44mm WeatherDisplay:10.37 W/m2 RA
11:56 -1.7 °F /  -18.7 °C -2.5 °F /  -19.2 °C 995.5in /  33707.6hPa NNE 14.3mph /  23km/h 22.2mph /  35.7km/h 94% 3.3in /  83.82mm WeatherDisplay:10.37 W/m2 RA
12:01 -1.7 °F /  -18.7 °C -2.5 °F /  -19.2 °C 995.5in /  33707.6hPa ENE 7.2mph /  11.6km/h 16.7mph /  26.9km/h 94% 3.6in /  91.44mm WeatherDisplay:10.37 W/m2 RA
12:06 -1.7 °F /  -18.7 °C -2.5 °F /  -19.2 °C 995.5in /  33707.6hPa SE 7.6mph /  12.2km/h 22.2mph /  35.7km/h 94% 3.3in /  83.82mm WeatherDisplay:10.37 W/m2 RA
12:11 -1.7 °F /  -18.7 °C -2.5 °F /  -19.2 °C 995.1in /  33694.1hPa East 8.2mph /  13.2km/h 18.5mph /  29.8km/h 94% 3.3in /  83.82mm WeatherDisplay:10.37 W/m2 RA
12:16 -1.7 °F /  -18.7 °C -2.5 °F /  -19.2 °C 995.5in /  33707.6hPa NE 10.8mph /  17.4km/h 17.7mph /  28.5km/h 94% 3.3in /  83.82mm WeatherDisplay:10.37 W/m2 RA
12:21 -1.7 °F /  -18.7 °C -2.5 °F /  -19.2 °C 995.5in /  33707.6hPa East 15.3mph /  24.6km/h 20.9mph /  33.6km/h 94% 3.3in /  83.82mm WeatherDisplay:10.37 W/m2 RA
12:26 -1.7 °F /  -18.7 °C -2.5 °F /  -19.2 °C 995.1in /  33694.1hPa ESE 10.6mph /  17.1km/h 29.6mph /  47.6km/h 94% 3.3in /  83.82mm WeatherDisplay:10.37 W/m2 RA
12:32 -1.7 °F /  -18.7 °C -2.5 °F /  -19.2 °C 995.5in /  33707.6hPa SE 12.1mph /  19.5km/h 20.4mph /  32.8km/h 94% 3.3in /  83.82mm WeatherDisplay:10.37 W/m2 RA
12:37 -1.7 °F /  -18.7 °C -2.5 °F /  -19.2 °C 995.5in /  33707.6hPa South 3.9mph /  6.3km/h 16.7mph /  26.9km/h 94% 3.3in /  83.82mm WeatherDisplay:10.37 W/m2 RA
12:42 -1.6 °F /  -18.7 °C -2.4 °F /  -19.1 °C 995.1in /  33694.1hPa NNE 8.0mph /  12.9km/h 17.7mph /  28.5km/h 94% 3.3in /  83.82mm WeatherDisplay:10.37 W/m2 RA
12:47 -1.6 °F /  -18.7 °C -2.4 °F /  -19.1 °C 995.1in /  33694.1hPa ENE 4.7mph /  7.6km/h 18.5mph /  29.8km/h 94% 3.3in /  83.82mm WeatherDisplay:10.37 W/m2 RA
12:52 -1.6 °F /  -18.7 °C -2.4 °F /  -19.1 °C 995.1in /  33694.1hPa SE 8.7mph /  14km/h 18.5mph /  29.8km/h 94% 3.3in /  83.82mm WeatherDisplay:10.37 W/m2 RA
12:57 -1.6 °F /  -18.7 °C -2.4 °F /  -19.1 °C 995.1in /  33694.1hPa SE 10.0mph /  16.1km/h 14.8mph /  23.8km/h 94% 3.3in /  83.82mm WeatherDisplay:10.37 W/m2 RA
13:02 -1.6 °F /  -18.7 °C -2.4 °F /  -19.1 °C 995.5in /  33707.6hPa ENE 10.0mph /  16.1km/h 18.5mph /  29.8km/h 94% 3.3in /  83.82mm WeatherDisplay:10.37 W/m2 RA
13:07 -1.6 °F /  -18.7 °C -2.4 °F /  -19.1 °C 995.5in /  33707.6hPa East 7.9mph /  12.7km/h 18.5mph /  29.8km/h 94% 3.3in /  83.82mm WeatherDisplay:10.37 W/m2 RA
13:12 -1.6 °F /  -18.7 °C -2.4 °F /  -19.1 °C 995.1in /  33694.1hPa East 9.7mph /  15.6km/h 14.8mph /  23.8km/h 94% 3.3in /  83.82mm WeatherDisplay:10.37 W/m2 RA
13:17 -1.5 °F /  -18.6 °C -2.3 °F /  -19.1 °C 995.1in /  33694.1hPa ESE 11.6mph /  18.7km/h 16.1mph /  25.9km/h 94% 3.3in /  83.82mm WeatherDisplay:10.37 W/m2 RA
13:22 -1.5 °F /  -18.6 °C -2.3 °F /  -19.1 °C 995.1in /  33694.1hPa ENE 9.0mph /  14.5km/h 14.8mph /  23.8km/h 94% 3.3in /  83.82mm WeatherDisplay:10.37 W/m2 RA
13:27 -1.5 °F /  -18.6 °C -2.3 °F /  -19.1 °C 995.1in /  33694.1hPa ESE 9.3mph /  15km/h 20.4mph /  32.8km/h 94% 3.0in /  76.2mm WeatherDisplay:10.37 W/m2 RA
13:33 -1.4 °F /  -18.6 °C -2.3 °F /  -19.1 °C 995.1in /  33694.1hPa ESE 8.7mph /  14km/h 18.5mph /  29.8km/h 94% 2.8in /  71.12mm WeatherDisplay:10.37 W/m2 RA
13:38 -1.4 °F /  -18.6 °C -2.3 °F /  -19.1 °C 995.1in /  33694.1hPa SE 12.2mph /  19.6km/h 16.7mph /  26.9km/h 94% 2.8in /  71.12mm WeatherDisplay:10.37 W/m2 RA
13:43 -1.4 °F /  -18.6 °C -2.3 °F /  -19.1 °C 995.1in /  33694.1hPa East 12.1mph /  19.5km/h 18.5mph /  29.8km/h 94% 2.5in /  63.5mm WeatherDisplay:10.37 W/m2 RA
13:48 -1.4 °F /  -18.6 °C -2.3 °F /  -19.1 °C 995.1in /  33694.1hPa ESE 8.8mph /  14.2km/h 19.3mph /  31.1km/h 94% 2.5in /  63.5mm WeatherDisplay:10.37 W/m2 RA
13:54 -1.4 °F /  -18.6 °C -2.3 °F /  -19.1 °C 995.1in /  33694.1hPa ESE 7.6mph /  12.2km/h 16.7mph /  26.9km/h 94% 2.8in /  71.12mm WeatherDisplay:10.37 W/m2 RA
13:59 -1.4 °F /  -18.6 °C -2.3 °F /  -19.1 °C 995.1in /  33694.1hPa East 11.7mph /  18.8km/h 18.5mph /  29.8km/h 94% 3.3in /  83.82mm WeatherDisplay:10.37 W/m2 RA
14:04 -1.4 °F /  -18.6 °C -2.2 °F /  -19 °C 995.1in /  33694.1hPa East 8.8mph /  14.2km/h 20.4mph /  32.8km/h 94% 3.3in /  83.82mm WeatherDisplay:10.37 W/m2 RA
14:09 -1.4 °F /  -18.6 °C -2.2 °F /  -19 °C 995.1in /  33694.1hPa ENE 3.5mph /  5.6km/h 11.3mph /  18.2km/h 94% 3.3in /  83.82mm WeatherDisplay:10.37 W/m2 RA
14:14 -1.3 °F /  -18.5 °C -2.2 °F /  -19 °C 995.1in /  33694.1hPa SE 4.5mph /  7.2km/h 13.0mph /  20.9km/h 94% 3.3in /  83.82mm WeatherDisplay:10.37 W/m2 RA
14:19 -1.3 °F /  -18.5 °C -2.2 °F /  -19 °C 995.1in /  33694.1hPa East 5.3mph /  8.5km/h 14.8mph /  23.8km/h 94% 3.3in /  83.82mm WeatherDisplay:10.37 W/m2 RA
14:24 -1.3 °F /  -18.5 °C -2.2 °F /  -19 °C 995.1in /  33694.1hPa East 8.7mph /  14km/h 18.5mph /  29.8km/h 94% 3.6in /  91.44mm WeatherDisplay:10.37 W/m2 RA
14:29 -1.3 °F /  -18.5 °C -2.1 °F /  -18.9 °C 995.1in /  33694.1hPa ESE 8.5mph /  13.7km/h 13.0mph /  20.9km/h 94% 3.6in /  91.44mm WeatherDisplay:10.37 W/m2 RA
14:34 -1.3 °F /  -18.5 °C -2.1 °F /  -18.9 °C 995.1in /  33694.1hPa ESE 10.1mph /  16.3km/h 16.7mph /  26.9km/h 94% 3.8in /  96.52mm WeatherDisplay:10.37 W/m2 RA
14:39 -1.3 °F /  -18.5 °C -2.1 °F /  -18.9 °C 995.1in /  33694.1hPa ESE 10.9mph /  17.5km/h 18.5mph /  29.8km/h 94% 4.1in /  104.14mm WeatherDisplay:10.37 W/m2 RA
14:44 -1.3 °F /  -18.5 °C -2.1 °F /  -18.9 °C 995.1in /  33694.1hPa ESE 10.9mph /  17.5km/h 18.5mph /  29.8km/h 94% 4.3in /  109.22mm WeatherDisplay:10.37 W/m2 RA
14:49 -1.3 °F /  -18.5 °C -2.1 °F /  -18.9 °C 995.1in /  33694.1hPa ENE 0.2mph /  0.3km/h 6.4mph /  10.3km/h 94% 4.3in /  109.22mm WeatherDisplay:10.37 W/m2 RA
14:54 -1.2 °F /  -18.4 °C -2.1 °F /  -18.9 °C 995.1in /  33694.1hPa SSE 5.8mph /  9.3km/h 18.5mph /  29.8km/h 94% 4.3in /  109.22mm WeatherDisplay:10.37 W/m2 RA
14:59 -1.2 °F /  -18.4 °C -2.1 °F /  -18.9 °C 995.1in /  33694.1hPa ESE 3.1mph /  5km/h 13.0mph /  20.9km/h 94% 4.1in /  104.14mm WeatherDisplay:10.37 W/m2 RA
15:04 -1.2 °F /  -18.4 °C -2.1 °F /  -18.9 °C 994.8in /  33683.9hPa East 4.5mph /  7.2km/h 13.0mph /  20.9km/h 94% 4.1in /  104.14mm WeatherDisplay:10.37 W/m2 RA
15:09 -1.2 °F /  -18.4 °C -2.1 °F /  -18.9 °C 995.1in /  33694.1hPa SSW 9.2mph /  14.8km/h 18.5mph /  29.8km/h 94% 4.1in /  104.14mm WeatherDisplay:10.37 W/m2 RA
15:14 -1.2 °F /  -18.4 °C -2.0 °F /  -18.9 °C 995.1in /  33694.1hPa South 4.7mph /  7.6km/h 16.7mph /  26.9km/h 94% 3.8in /  96.52mm WeatherDisplay:10.37 W/m2 RA
15:19 -1.2 °F /  -18.4 °C -2.0 °F /  -18.9 °C 995.1in /  33694.1hPa East 6.9mph /  11.1km/h 13.0mph /  20.9km/h 94% 4.1in /  104.14mm WeatherDisplay:10.37 W/m2 RA
15:24 -1.2 °F /  -18.4 °C -2.0 °F /  -18.9 °C 995.1in /  33694.1hPa SE 4.8mph /  7.7km/h 9.3mph /  15km/h 94% 4.1in /  104.14mm WeatherDisplay:10.37 W/m2 RA
15:29 -1.1 °F /  -18.4 °C -1.9 °F /  -18.8 °C 995.1in /  33694.1hPa ESE 3.7mph /  6km/h 9.3mph /  15km/h 94% 4.3in /  109.22mm WeatherDisplay:10.37 W/m2 RA
15:34 -1.1 °F /  -18.4 °C -1.9 °F /  -18.8 °C 995.1in /  33694.1hPa ENE 3.4mph /  5.5km/h 11.1mph /  17.9km/h 94% 4.3in /  109.22mm WeatherDisplay:10.37 W/m2 RA
15:39 -1.1 °F /  -18.4 °C -1.9 °F /  -18.8 °C 995.1in /  33694.1hPa ENE 8.7mph /  14km/h 18.5mph /  29.8km/h 94% 4.3in /  109.22mm WeatherDisplay:10.37 W/m2 RA
15:44 -1.0 °F /  -18.3 °C -1.8 °F /  -18.8 °C 995.1in /  33694.1hPa ESE 2.7mph /  4.3km/h 9.7mph /  15.6km/h 94% 4.3in /  109.22mm WeatherDisplay:10.37 W/m2 RA
15:49 -1.0 °F /  -18.3 °C -1.8 °F /  -18.8 °C 995.1in /  33694.1hPa ENE 6.0mph /  9.7km/h 9.3mph /  15km/h 94% 4.3in /  109.22mm WeatherDisplay:10.37 W/m2 RA
15:54 -1.0 °F /  -18.3 °C -1.8 °F /  -18.8 °C 995.1in /  33694.1hPa ESE 5.6mph /  9km/h 9.3mph /  15km/h 94% 4.3in /  109.22mm WeatherDisplay:10.37 W/m2 RA
15:59 -1.0 °F /  -18.3 °C -1.8 °F /  -18.8 °C 995.1in /  33694.1hPa East 6.8mph /  10.9km/h 14.5mph /  23.3km/h 94% 4.1in /  104.14mm WeatherDisplay:10.37 W/m2 RA
16:04 -0.9 °F /  -18.3 °C -1.8 °F /  -18.8 °C 995.1in /  33694.1hPa ENE 0.3mph /  0.5km/h 5.6mph /  9km/h 94% 3.8in /  96.52mm WeatherDisplay:10.37 W/m2 RA
16:09 -0.9 °F /  -18.3 °C -1.8 °F /  -18.8 °C 995.5in /  33707.6hPa SE 5.6mph /  9km/h 13.0mph /  20.9km/h 94% 3.8in /  96.52mm WeatherDisplay:10.37 W/m2 RA
16:14 -0.9 °F /  -18.3 °C -1.8 °F /  -18.8 °C 995.5in /  33707.6hPa SSE 6.0mph /  9.7km/h 11.1mph /  17.9km/h 94% 3.8in /  96.52mm WeatherDisplay:10.37 W/m2 RA
16:19 -0.9 °F /  -18.3 °C -1.7 °F /  -18.7 °C 995.5in /  33707.6hPa East 3.1mph /  5km/h 11.1mph /  17.9km/h 94% 3.3in /  83.82mm WeatherDisplay:10.37 W/m2 RA
16:24 -0.9 °F /  -18.3 °C -1.7 °F /  -18.7 °C 995.5in /  33707.6hPa ESE 6.3mph /  10.1km/h 9.3mph /  15km/h 94% 3.3in /  83.82mm WeatherDisplay:10.37 W/m2 RA
16:29 -0.8 °F /  -18.2 °C -1.7 °F /  -18.7 °C 995.5in /  33707.6hPa ENE 5.0mph /  8km/h 11.1mph /  17.9km/h 94% 3.0in /  76.2mm WeatherDisplay:10.37 W/m2 RA
16:34 -0.8 °F /  -18.2 °C -1.7 °F /  -18.7 °C 995.5in /  33707.6hPa East 6.3mph /  10.1km/h 13.0mph /  20.9km/h 94% 2.8in /  71.12mm WeatherDisplay:10.37 W/m2 RA
16:39 -0.8 °F /  -18.2 °C -1.7 °F /  -18.7 °C 995.5in /  33707.6hPa ESE 7.7mph /  12.4km/h 11.3mph /  18.2km/h 94% 2.8in /  71.12mm WeatherDisplay:10.37 W/m2 RA
16:44 -0.8 °F /  -18.2 °C -1.7 °F /  -18.7 °C 995.5in /  33707.6hPa ESE 3.5mph /  5.6km/h 9.7mph /  15.6km/h 94% 2.3in /  58.42mm WeatherDisplay:10.37 W/m2 RA
16:49 -0.8 °F /  -18.2 °C -1.6 °F /  -18.7 °C 995.5in /  33707.6hPa ENE 1.1mph /  1.8km/h 5.6mph /  9km/h 94% 2.3in /  58.42mm WeatherDisplay:10.37 W/m2 RA
16:54 -0.8 °F /  -18.2 °C -1.6 °F /  -18.7 °C 995.5in /  33707.6hPa ENE 1.8mph /  2.9km/h 5.6mph /  9km/h 94% 2.0in /  50.8mm WeatherDisplay:10.37 W/m2 RA
16:59 -0.7 °F /  -18.2 °C -1.6 °F /  -18.7 °C 995.5in /  33707.6hPa ESE 4.2mph /  6.8km/h 9.3mph /  15km/h 94% 2.0in /  50.8mm WeatherDisplay:10.37 W/m2 RA
17:04 -0.7 °F /  -18.2 °C -1.6 °F /  -18.7 °C 995.5in /  33707.6hPa ESE 3.5mph /  5.6km/h 11.1mph /  17.9km/h 94% 1.8in /  45.72mm WeatherDisplay:10.37 W/m2 RA
17:09 -0.7 °F /  -18.2 °C -1.6 °F /  -18.7 °C 995.5in /  33707.6hPa SE 2.4mph /  3.9km/h 9.3mph /  15km/h 94% 1.5in /  38.1mm WeatherDisplay:10.37 W/m2 RA
17:14 -0.7 °F /  -18.2 °C -1.6 °F /  -18.7 °C 995.5in /  33707.6hPa Calm     94% 1.5in /  38.1mm WeatherDisplay:10.37 W/m2 RA
17:19 -0.7 °F /  -18.2 °C -1.6 °F /  -18.7 °C 995.8in /  33717.8hPa Calm     94% 1.5in /  38.1mm WeatherDisplay:10.37 W/m2 RA
17:24 -0.7 °F /  -18.2 °C -1.5 °F /  -18.6 °C 995.8in /  33717.8hPa ENE 1.3mph /  2.1km/h 5.6mph /  9km/h 94% 1.5in /  38.1mm WeatherDisplay:10.37 W/m2 RA
17:29 -0.7 °F /  -18.2 °C -1.5 °F /  -18.6 °C 995.8in /  33717.8hPa East 2.4mph /  3.9km/h 3.7mph /  6km/h 94% 1.5in /  38.1mm WeatherDisplay:10.37 W/m2 RA
17:34 -0.7 °F /  -18.2 °C -1.5 °F /  -18.6 °C 995.8in /  33717.8hPa East 2.6mph /  4.2km/h 5.6mph /  9km/h 94% 1.5in /  38.1mm WeatherDisplay:10.37 W/m2 RA
17:39 -0.7 °F /  -18.2 °C -1.5 °F /  -18.6 °C 995.8in /  33717.8hPa East 1.3mph /  2.1km/h 4.8mph /  7.7km/h 94% 1.3in /  33.02mm WeatherDisplay:10.37 W/m2 RA
17:44 -0.6 °F /  -18.1 °C -1.4 °F /  -18.6 °C 995.8in /  33717.8hPa ESE 0.6mph /  1km/h 3.7mph /  6km/h 94% 1.5in /  38.1mm WeatherDisplay:10.37 W/m2 RA
17:49 -0.6 °F /  -18.1 °C -1.4 °F /  -18.6 °C 995.8in /  33717.8hPa Calm   3.7mph /  6km/h 94% 1.3in /  33.02mm WeatherDisplay:10.37 W/m2 RA
17:54 -0.6 °F /  -18.1 °C -1.4 °F /  -18.6 °C 996.2in /  33731.3hPa Calm     94% 1.5in /  38.1mm WeatherDisplay:10.37 W/m2 RA
17:59 -0.6 °F /  -18.1 °C -1.4 °F /  -18.6 °C 996.2in /  33731.3hPa Calm     94% 1.3in /  33.02mm WeatherDisplay:10.37 W/m2 RA
18:04 -0.6 °F /  -18.1 °C -1.4 °F /  -18.6 °C 996.2in /  33731.3hPa ESE 3.2mph /  5.1km/h 5.6mph /  9km/h 94% 1.3in /  33.02mm WeatherDisplay:10.37 W/m2 FEW
18:09 -0.6 °F /  -18.1 °C -1.4 °F /  -18.6 °C 995.8in /  33717.8hPa ENE 4.0mph /  6.4km/h 5.6mph /  9km/h 94% 1.3in /  33.02mm WeatherDisplay:10.37 W/m2 RA
18:14 -0.6 °F /  -18.1 °C -1.4 °F /  -18.6 °C 996.2in /  33731.3hPa ENE 0.2mph /  0.3km/h 3.7mph /  6km/h 94% 1.3in /  33.02mm WeatherDisplay:10.37 W/m2 RA
18:19 -0.5 °F /  -18.1 °C -1.3 °F /  -18.5 °C 996.2in /  33731.3hPa Calm     94% 1.3in /  33.02mm WeatherDisplay:10.37 W/m2 RA
18:24 -0.5 °F /  -18.1 °C -1.3 °F /  -18.5 °C 996.2in /  33731.3hPa Calm     94% 1.0in /  25.4mm WeatherDisplay:10.37 W/m2 RA
18:29 -0.5 °F /  -18.1 °C -1.3 °F /  -18.5 °C 996.2in /  33731.3hPa Calm     94% 1.0in /  25.4mm WeatherDisplay:10.37 W/m2 FEW
18:34 -0.5 °F /  -18.1 °C -1.3 °F /  -18.5 °C 996.2in /  33731.3hPa Calm     94% 0.8in /  20.32mm WeatherDisplay:10.37 W/m2 FEW
18:39 -0.4 °F /  -18 °C -1.3 °F /  -18.5 °C 996.2in /  33731.3hPa Calm     94% 1.0in /  25.4mm WeatherDisplay:10.37 W/m2 RA
18:44 -0.4 °F /  -18 °C -1.3 °F /  -18.5 °C 996.5in /  33741.5hPa Calm     94% 0.8in /  20.32mm WeatherDisplay:10.37 W/m2 RA
18:49 -0.4 °F /  -18 °C -1.3 °F /  -18.5 °C 996.5in /  33741.5hPa Calm     94% 0.8in /  20.32mm WeatherDisplay:10.37 W/m2 FEW
18:54 -0.4 °F /  -18 °C -1.3 °F /  -18.5 °C 996.5in /  33741.5hPa Calm     94% 0.8in /  20.32mm WeatherDisplay:10.37 W/m2 RA
18:59 -0.4 °F /  -18 °C -1.3 °F /  -18.5 °C 996.5in /  33741.5hPa Calm     94% 0.8in /  20.32mm WeatherDisplay:10.37 W/m2 RA
19:04 -0.4 °F /  -18 °C -1.2 °F /  -18.4 °C 996.5in /  33741.5hPa Calm     94% 0.8in /  20.32mm WeatherDisplay:10.37 W/m2 FEW
19:09 -0.4 °F /  -18 °C -1.2 °F /  -18.4 °C 996.5in /  33741.5hPa Calm     94% 0.5in /  12.7mm WeatherDisplay:10.37 W/m2 FEW
19:14 -0.4 °F /  -18 °C -1.2 °F /  -18.4 °C 996.5in /  33741.5hPa Calm     94% 0.5in /  12.7mm WeatherDisplay:10.37 W/m2 FEW
19:19 -0.3 °F /  -17.9 °C -1.2 °F /  -18.4 °C 996.8in /  33751.6hPa Calm     94% 0.5in /  12.7mm WeatherDisplay:10.37 W/m2 FEW
19:24 -0.3 °F /  -17.9 °C -1.2 °F /  -18.4 °C 996.5in /  33741.5hPa Calm     94% 0.5in /  12.7mm WeatherDisplay:10.37 W/m2 FEW
19:29 -0.3 °F /  -17.9 °C -1.2 °F /  -18.4 °C 996.8in /  33751.6hPa Calm     94% 0.5in /  12.7mm WeatherDisplay:10.37 W/m2 FEW
19:34 -0.3 °F /  -17.9 °C -1.2 °F /  -18.4 °C 996.8in /  33751.6hPa Calm     94% 0.5in /  12.7mm WeatherDisplay:10.37 W/m2 FEW
19:39 -0.3 °F /  -17.9 °C -1.2 °F /  -18.4 °C 996.8in /  33751.6hPa Calm     94% 0.5in /  12.7mm WeatherDisplay:10.37 W/m2 RA
19:44 -0.3 °F /  -17.9 °C -1.2 °F /  -18.4 °C 996.8in /  33751.6hPa ENE 1.0mph /  1.6km/h 3.7mph /  6km/h 94% 0.5in /  12.7mm WeatherDisplay:10.37 W/m2 RA
19:49 -0.3 °F /  -17.9 °C -1.2 °F /  -18.4 °C 996.8in /  33751.6hPa Calm     94% 0.5in /  12.7mm WeatherDisplay:10.37 W/m2 FEW
19:54 -0.3 °F /  -17.9 °C -1.2 °F /  -18.4 °C 996.8in /  33751.6hPa Calm     94% 0.3in /  7.62mm WeatherDisplay:10.37 W/m2 FEW
19:59 -0.3 °F /  -17.9 °C -1.2 °F /  -18.4 °C 996.8in /  33751.6hPa Calm     94% 0.3in /  7.62mm WeatherDisplay:10.37 W/m2 FEW
20:04 -0.3 °F /  -17.9 °C -1.2 °F /  -18.4 °C 997.2in /  33765.2hPa Calm     94% 0.3in /  7.62mm WeatherDisplay:10.37 W/m2 FEW
20:09 -0.3 °F /  -17.9 °C -1.1 °F /  -18.4 °C 997.2in /  33765.2hPa Calm   3.7mph /  6km/h 94% 0.5in /  12.7mm WeatherDisplay:10.37 W/m2 RA
20:14 -0.3 °F /  -17.9 °C -1.1 °F /  -18.4 °C 997.2in /  33765.2hPa Calm     94% 0.5in /  12.7mm WeatherDisplay:10.37 W/m2 RA
20:19 -0.3 °F /  -17.9 °C -1.1 °F /  -18.4 °C 997.2in /  33765.2hPa Calm     94% 0.5in /  12.7mm WeatherDisplay:10.37 W/m2 FEW
20:24 -0.3 °F /  -17.9 °C -1.1 °F /  -18.4 °C 997.2in /  33765.2hPa Calm     94% 0.5in /  12.7mm WeatherDisplay:10.37 W/m2 FEW
20:29 -0.3 °F /  -17.9 °C -1.1 °F /  -18.4 °C 997.5in /  33775.4hPa Calm     94% 0.5in /  12.7mm WeatherDisplay:10.37 W/m2 FEW
20:34 -0.3 °F /  -17.9 °C -1.1 °F /  -18.4 °C 997.2in /  33765.2hPa Calm     94% 0.5in /  12.7mm WeatherDisplay:10.37 W/m2 FEW
20:39 -0.2 °F /  -17.9 °C -1.1 °F /  -18.4 °C 997.5in /  33775.4hPa Calm     94% 0.3in /  7.62mm WeatherDisplay:10.37 W/m2 FEW
20:44 -0.2 °F /  -17.9 °C -1.1 °F /  -18.4 °C 997.5in /  33775.4hPa Calm     94% 0.3in /  7.62mm WeatherDisplay:10.37 W/m2 FEW
20:49 -0.2 °F /  -17.9 °C -1.1 °F /  -18.4 °C 997.5in /  33775.4hPa Calm     94% 0.3in /  7.62mm WeatherDisplay:10.37 W/m2 FEW
20:54 -0.2 °F /  -17.9 °C -1.1 °F /  -18.4 °C 997.9in /  33788.9hPa Calm     94% 0.3in /  7.62mm WeatherDisplay:10.37 W/m2 FEW
20:59 -0.2 °F /  -17.9 °C -1.1 °F /  -18.4 °C 997.9in /  33788.9hPa Calm     94% 0.3in /  7.62mm WeatherDisplay:10.37 W/m2 FEW
21:04 -0.2 °F /  -17.9 °C -1.1 °F /  -18.4 °C 997.9in /  33788.9hPa Calm     94% 0.3in /  7.62mm WeatherDisplay:10.37 W/m2 FEW
21:09 -0.2 °F /  -17.9 °C -1.0 °F /  -18.3 °C 997.9in /  33788.9hPa Calm   3.7mph /  6km/h 94% 0.0in /  0mm WeatherDisplay:10.37 W/m2 FEW
21:14 -0.2 °F /  -17.9 °C -1.0 °F /  -18.3 °C 997.9in /  33788.9hPa Calm     94% 0.0in /  0mm WeatherDisplay:10.37 W/m2 FEW
21:19 -0.2 °F /  -17.9 °C -1.0 °F /  -18.3 °C 997.9in /  33788.9hPa Calm     94% 0.0in /  0mm WeatherDisplay:10.37 W/m2 FEW
21:24 -0.2 °F /  -17.9 °C -1.0 °F /  -18.3 °C 997.9in /  33788.9hPa Calm     94% 0.0in /  0mm WeatherDisplay:10.37 W/m2 FEW
21:29 -0.2 °F /  -17.9 °C -0.9 °F /  -18.3 °C 997.9in /  33788.9hPa Calm     95% 0.0in /  0mm WeatherDisplay:10.37 W/m2 FEW
21:34 -0.2 °F /  -17.9 °C -1.0 °F /  -18.3 °C 997.9in /  33788.9hPa Calm     94% 0.0in /  0mm WeatherDisplay:10.37 W/m2 FEW
21:39 -0.1 °F /  -17.8 °C -0.9 °F /  -18.3 °C 998.2in /  33799.1hPa Calm     94% 0.0in /  0mm WeatherDisplay:10.37 W/m2 FEW
21:44 -0.2 °F /  -17.9 °C -1.0 °F /  -18.3 °C 998.2in /  33799.1hPa Calm     94% 0.0in /  0mm WeatherDisplay:10.37 W/m2 FEW
21:49 -0.2 °F /  -17.9 °C -1.0 °F /  -18.3 °C 997.9in /  33788.9hPa Calm     94% 0.0in /  0mm WeatherDisplay:10.37 W/m2 FEW
21:54 -0.2 °F /  -17.9 °C -1.0 °F /  -18.3 °C 998.2in /  33799.1hPa Calm     94% 0.0in /  0mm WeatherDisplay:10.37 W/m2 FEW
21:59 -0.2 °F /  -17.9 °C -1.0 °F /  -18.3 °C 998.2in /  33799.1hPa Calm     94% 0.0in /  0mm WeatherDisplay:10.37 W/m2 FEW
22:04 -0.2 °F /  -17.9 °C -1.0 °F /  -18.3 °C 998.2in /  33799.1hPa Calm     94% 0.0in /  0mm WeatherDisplay:10.37 W/m2 FEW
22:09 -0.2 °F /  -17.9 °C -1.0 °F /  -18.3 °C 998.2in /  33799.1hPa Calm     94% 0.0in /  0mm WeatherDisplay:10.37 W/m2 FEW
22:14 -0.1 °F /  -17.8 °C -0.9 °F /  -18.3 °C 998.2in /  33799.1hPa Calm     94% 0.0in /  0mm WeatherDisplay:10.37 W/m2 FEW
22:19 -0.1 °F /  -17.8 °C -0.9 °F /  -18.3 °C 998.2in /  33799.1hPa Calm     94% 0.0in /  0mm WeatherDisplay:10.37 W/m2 FEW
22:24 -0.1 °F /  -17.8 °C -0.9 °F /  -18.3 °C 998.2in /  33799.1hPa Calm     94% 0.0in /  0mm WeatherDisplay:10.37 W/m2 FEW
22:29 -0.1 °F /  -17.8 °C -0.9 °F /  -18.3 °C 998.5in /  33809.2hPa Calm     94% 0.0in /  0mm WeatherDisplay:10.37 W/m2 FEW
22:34 -0.1 °F /  -17.8 °C -0.9 °F /  -18.3 °C 998.5in /  33809.2hPa Calm     94% 0.0in /  0mm WeatherDisplay:10.37 W/m2 FEW
22:39 -0.1 °F /  -17.8 °C -0.9 °F /  -18.3 °C 998.5in /  33809.2hPa Calm     94% 0.0in /  0mm WeatherDisplay:10.37 W/m2 FEW
22:44 -0.1 °F /  -17.8 °C -0.9 °F /  -18.3 °C 998.5in /  33809.2hPa Calm     94% 0.0in /  0mm WeatherDisplay:10.37 W/m2 FEW
22:49 -0.1 °F /  -17.8 °C -0.9 °F /  -18.3 °C 998.5in /  33809.2hPa Calm     94% 0.0in /  0mm WeatherDisplay:10.37 W/m2 FEW
22:54 -0.1 °F /  -17.8 °C -0.9 °F /  -18.3 °C 998.9in /  33822.8hPa Calm     94% 0.0in /  0mm WeatherDisplay:10.37 W/m2 FEW
22:59 -0.1 °F /  -17.8 °C -0.8 °F /  -18.2 °C 998.9in /  33822.8hPa Calm     95% 0.0in /  0mm WeatherDisplay:10.37 W/m2 FEW
23:04 -0.1 °F /  -17.8 °C -0.8 °F /  -18.2 °C 998.9in /  33822.8hPa Calm     95% 0.0in /  0mm WeatherDisplay:10.37 W/m2 FEW
23:09 0.0 °F /  -17.8 °C -0.7 °F /  -18.2 °C 998.5in /  33809.2hPa Calm     95% 0.0in /  0mm WeatherDisplay:10.37 W/m2 FEW
23:14 0.0 °F /  -17.8 °C -0.7 °F /  -18.2 °C 998.9in /  33822.8hPa Calm     95% 0.0in /  0mm WeatherDisplay:10.37 W/m2 FEW
23:19 0.0 °F /  -17.8 °C -0.7 °F /  -18.2 °C 998.9in /  33822.8hPa Calm     95% 0.0in /  0mm WeatherDisplay:10.37 W/m2 FEW
23:24 0.0 °F /  -17.8 °C -0.7 °F /  -18.2 °C 998.9in /  33822.8hPa Calm     95% 0.0in /  0mm WeatherDisplay:10.37 W/m2 FEW
23:29 0.0 °F /  -17.8 °C -0.7 °F /  -18.2 °C 998.9in /  33822.8hPa Calm   3.7mph /  6km/h 95% 0.0in /  0mm WeatherDisplay:10.37 W/m2 FEW
23:34 0.1 °F /  -17.7 °C -0.7 °F /  -18.2 °C 998.9in /  33822.8hPa Calm     95% 0.0in /  0mm WeatherDisplay:10.37 W/m2 FEW
23:39 0.1 °F /  -17.7 °C -0.7 °F /  -18.2 °C 998.9in /  33822.8hPa Calm     95% 0.0in /  0mm WeatherDisplay:10.37 W/m2 FEW
23:44 0.1 °F /  -17.7 °C -0.7 °F /  -18.2 °C 998.9in /  33822.8hPa Calm   3.7mph /  6km/h 95% 0.0in /  0mm WeatherDisplay:10.37 W/m2 FEW
23:49 0.1 °F /  -17.7 °C -0.7 °F /  -18.2 °C 998.9in /  33822.8hPa Calm     95% 0.0in /  0mm WeatherDisplay:10.37 W/m2 FEW
23:54 0.1 °F /  -17.7 °C -0.7 °F /  -18.2 °C 998.9in /  33822.8hPa Calm     95% 0.0in /  0mm WeatherDisplay:10.37 W/m2 FEW
23:59 0.1 °F /  -17.7 °C -0.7 °F /  -18.2 °C 998.9in /  33822.8hPa Calm     95% 0.0in /  0mm WeatherDisplay:10.37 W/m2 FEW
Tuulensuunkaari, Veikkola, Suomi
Compliments of Weather Underground - 2.75 mb